sensor_id;sensor_type;location;lat;lon;timestamp;P1;durP1;ratioP1;P2;durP2;ratioP2
24713;SDS011;12820;51.580;5.010;2022-07-19T00:04:38;6.82;;;3.00;;
24713;SDS011;12820;51.580;5.010;2022-07-19T00:09:40;5.53;;;3.03;;
24713;SDS011;12820;51.580;5.010;2022-07-19T00:14:42;5.68;;;3.38;;
24713;SDS011;12820;51.580;5.010;2022-07-19T00:19:45;8.18;;;2.88;;
24713;SDS011;12820;51.580;5.010;2022-07-19T00:24:48;5.55;;;3.20;;
24713;SDS011;12820;51.580;5.010;2022-07-19T00:29:50;6.95;;;3.53;;
24713;SDS011;12820;51.580;5.010;2022-07-19T00:34:52;6.15;;;2.88;;
24713;SDS011;12820;51.580;5.010;2022-07-19T00:39:54;8.27;;;2.97;;
24713;SDS011;12820;51.580;5.010;2022-07-19T00:44:56;5.53;;;2.97;;
24713;SDS011;12820;51.580;5.010;2022-07-19T00:50:04;5.78;;;3.08;;
24713;SDS011;12820;51.580;5.010;2022-07-19T00:55:07;10.18;;;3.25;;
24713;SDS011;12820;51.580;5.010;2022-07-19T01:00:11;6.72;;;3.25;;
24713;SDS011;12820;51.580;5.010;2022-07-19T01:05:15;11.02;;;3.25;;
24713;SDS011;12820;51.580;5.010;2022-07-19T01:10:17;5.80;;;3.03;;
24713;SDS011;12820;51.580;5.010;2022-07-19T01:15:24;6.72;;;3.00;;
24713;SDS011;12820;51.580;5.010;2022-07-19T01:20:28;6.78;;;3.22;;
24713;SDS011;12820;51.580;5.010;2022-07-19T01:25:33;6.40;;;3.45;;
24713;SDS011;12820;51.580;5.010;2022-07-19T01:30:36;8.00;;;3.75;;
24713;SDS011;12820;51.580;5.010;2022-07-19T01:35:39;6.75;;;3.47;;
24713;SDS011;12820;51.580;5.010;2022-07-19T01:40:41;7.88;;;3.28;;
24713;SDS011;12820;51.580;5.010;2022-07-19T01:45:43;7.70;;;3.13;;
24713;SDS011;12820;51.580;5.010;2022-07-19T01:50:45;5.80;;;3.30;;
24713;SDS011;12820;51.580;5.010;2022-07-19T01:55:47;5.05;;;3.15;;
24713;SDS011;12820;51.580;5.010;2022-07-19T02:00:50;6.88;;;3.50;;
24713;SDS011;12820;51.580;5.010;2022-07-19T02:05:53;5.93;;;3.35;;
24713;SDS011;12820;51.580;5.010;2022-07-19T02:10:55;6.97;;;3.35;;
24713;SDS011;12820;51.580;5.010;2022-07-19T02:15:57;6.72;;;3.25;;
24713;SDS011;12820;51.580;5.010;2022-07-19T02:20:59;6.72;;;2.88;;
24713;SDS011;12820;51.580;5.010;2022-07-19T02:26:03;6.07;;;3.25;;
24713;SDS011;12820;51.580;5.010;2022-07-19T02:31:05;6.80;;;3.22;;
24713;SDS011;12820;51.580;5.010;2022-07-19T02:36:07;5.93;;;3.50;;
24713;SDS011;12820;51.580;5.010;2022-07-19T02:41:10;6.95;;;3.50;;
24713;SDS011;12820;51.580;5.010;2022-07-19T02:46:12;5.82;;;3.38;;
24713;SDS011;12820;51.580;5.010;2022-07-19T02:51:14;8.32;;;3.80;;
24713;SDS011;12820;51.580;5.010;2022-07-19T02:56:16;9.18;;;3.47;;
24713;SDS011;12820;51.580;5.010;2022-07-19T03:01:21;7.07;;;3.50;;
24713;SDS011;12820;51.580;5.010;2022-07-19T03:06:23;11.40;;;4.07;;
24713;SDS011;12820;51.580;5.010;2022-07-19T03:11:27;10.43;;;3.85;;
24713;SDS011;12820;51.580;5.010;2022-07-19T03:16:29;5.50;;;3.47;;
24713;SDS011;12820;51.580;5.010;2022-07-19T03:21:33;6.75;;;3.60;;
24713;SDS011;12820;51.580;5.010;2022-07-19T03:26:35;6.80;;;3.67;;
24713;SDS011;12820;51.580;5.010;2022-07-19T03:31:38;5.07;;;3.30;;
24713;SDS011;12820;51.580;5.010;2022-07-19T03:36:40;6.35;;;3.35;;
24713;SDS011;12820;51.580;5.010;2022-07-19T03:41:42;6.78;;;3.90;;
24713;SDS011;12820;51.580;5.010;2022-07-19T03:46:44;6.45;;;3.55;;
24713;SDS011;12820;51.580;5.010;2022-07-19T03:51:46;6.63;;;3.92;;
24713;SDS011;12820;51.580;5.010;2022-07-19T03:56:49;6.82;;;4.10;;
24713;SDS011;12820;51.580;5.010;2022-07-19T04:01:52;8.13;;;4.15;;
24713;SDS011;12820;51.580;5.010;2022-07-19T04:06:54;8.15;;;3.97;;
24713;SDS011;12820;51.580;5.010;2022-07-19T04:11:57;6.93;;;3.85;;
24713;SDS011;12820;51.580;5.010;2022-07-19T04:17:02;8.18;;;4.05;;
24713;SDS011;12820;51.580;5.010;2022-07-19T04:22:06;7.28;;;4.30;;
24713;SDS011;12820;51.580;5.010;2022-07-19T04:27:08;9.70;;;4.22;;
24713;SDS011;12820;51.580;5.010;2022-07-19T04:32:11;8.80;;;4.30;;
24713;SDS011;12820;51.580;5.010;2022-07-19T04:37:21;10.75;;;4.32;;
24713;SDS011;12820;51.580;5.010;2022-07-19T04:42:23;8.02;;;4.32;;
24713;SDS011;12820;51.580;5.010;2022-07-19T04:47:25;10.43;;;4.72;;
24713;SDS011;12820;51.580;5.010;2022-07-19T04:52:27;8.52;;;4.60;;
24713;SDS011;12820;51.580;5.010;2022-07-19T04:57:29;8.68;;;4.22;;
24713;SDS011;12820;51.580;5.010;2022-07-19T05:02:32;8.25;;;4.72;;
24713;SDS011;12820;51.580;5.010;2022-07-19T05:07:34;8.75;;;4.80;;
24713;SDS011;12820;51.580;5.010;2022-07-19T05:12:37;9.30;;;4.95;;
24713;SDS011;12820;51.580;5.010;2022-07-19T05:17:39;9.73;;;5.00;;
24713;SDS011;12820;51.580;5.010;2022-07-19T05:22:43;10.38;;;4.32;;
24713;SDS011;12820;51.580;5.010;2022-07-19T05:27:49;8.63;;;4.93;;
24713;SDS011;12820;51.580;5.010;2022-07-19T05:32:51;9.32;;;4.65;;
24713;SDS011;12820;51.580;5.010;2022-07-19T05:37:54;10.30;;;4.78;;
24713;SDS011;12820;51.580;5.010;2022-07-19T05:42:56;12.43;;;5.20;;
24713;SDS011;12820;51.580;5.010;2022-07-19T05:47:59;11.90;;;6.18;;
24713;SDS011;12820;51.580;5.010;2022-07-19T05:53:04;10.68;;;5.30;;
24713;SDS011;12820;51.580;5.010;2022-07-19T05:58:06;13.15;;;5.90;;
24713;SDS011;12820;51.580;5.010;2022-07-19T06:03:08;10.35;;;5.47;;
24713;SDS011;12820;51.580;5.010;2022-07-19T06:08:12;9.50;;;5.43;;
24713;SDS011;12820;51.580;5.010;2022-07-19T06:13:15;8.90;;;4.90;;
24713;SDS011;12820;51.580;5.010;2022-07-19T06:18:18;9.73;;;4.68;;
24713;SDS011;12820;51.580;5.010;2022-07-19T06:23:21;9.68;;;4.53;;
24713;SDS011;12820;51.580;5.010;2022-07-19T06:28:23;9.77;;;4.50;;
24713;SDS011;12820;51.580;5.010;2022-07-19T06:33:26;8.43;;;4.13;;
24713;SDS011;12820;51.580;5.010;2022-07-19T06:38:28;10.75;;;4.38;;
24713;SDS011;12820;51.580;5.010;2022-07-19T06:43:30;7.72;;;3.85;;
24713;SDS011;12820;51.580;5.010;2022-07-19T06:48:32;11.43;;;4.53;;
24713;SDS011;12820;51.580;5.010;2022-07-19T06:53:35;10.00;;;4.15;;
24713;SDS011;12820;51.580;5.010;2022-07-19T06:58:37;8.02;;;4.10;;
24713;SDS011;12820;51.580;5.010;2022-07-19T07:03:43;9.75;;;4.55;;
24713;SDS011;12820;51.580;5.010;2022-07-19T07:08:45;8.35;;;4.28;;
24713;SDS011;12820;51.580;5.010;2022-07-19T07:13:47;8.75;;;4.32;;
24713;SDS011;12820;51.580;5.010;2022-07-19T07:18:49;7.35;;;3.75;;
24713;SDS011;12820;51.580;5.010;2022-07-19T07:23:51;10.88;;;4.53;;
24713;SDS011;12820;51.580;5.010;2022-07-19T07:28:54;8.60;;;4.38;;
24713;SDS011;12820;51.580;5.010;2022-07-19T07:33:56;8.50;;;4.05;;
24713;SDS011;12820;51.580;5.010;2022-07-19T07:39:00;7.10;;;3.65;;
24713;SDS011;12820;51.580;5.010;2022-07-19T07:44:04;8.18;;;4.57;;
24713;SDS011;12820;51.580;5.010;2022-07-19T07:49:06;7.47;;;4.07;;
24713;SDS011;12820;51.580;5.010;2022-07-19T07:54:09;9.10;;;4.10;;
24713;SDS011;12820;51.580;5.010;2022-07-19T07:59:11;12.25;;;4.47;;
24713;SDS011;12820;51.580;5.010;2022-07-19T08:04:13;7.00;;;4.03;;
24713;SDS011;12820;51.580;5.010;2022-07-19T08:09:15;7.85;;;3.90;;
24713;SDS011;12820;51.580;5.010;2022-07-19T08:14:18;9.48;;;3.22;;
24713;SDS011;12820;51.580;5.010;2022-07-19T08:19:20;6.70;;;3.38;;
24713;SDS011;12820;51.580;5.010;2022-07-19T08:24:22;9.00;;;3.70;;
24713;SDS011;12820;51.580;5.010;2022-07-19T08:29:24;8.98;;;3.85;;
24713;SDS011;12820;51.580;5.010;2022-07-19T08:34:27;7.72;;;3.22;;
24713;SDS011;12820;51.580;5.010;2022-07-19T08:39:29;7.65;;;3.08;;
24713;SDS011;12820;51.580;5.010;2022-07-19T08:44:31;6.50;;;3.20;;
24713;SDS011;12820;51.580;5.010;2022-07-19T08:49:37;5.93;;;3.10;;
24713;SDS011;12820;51.580;5.010;2022-07-19T08:54:40;8.88;;;3.33;;
24713;SDS011;12820;51.580;5.010;2022-07-19T08:59:42;5.25;;;3.13;;
24713;SDS011;12820;51.580;5.010;2022-07-19T09:04:58;4.30;;;2.67;;
24713;SDS011;12820;51.580;5.010;2022-07-19T09:10:14;8.35;;;3.50;;
24713;SDS011;12820;51.580;5.010;2022-07-19T09:15:21;7.30;;;2.97;;
24713;SDS011;12820;51.580;5.010;2022-07-19T09:20:38;5.93;;;2.80;;
24713;SDS011;12820;51.580;5.010;2022-07-19T09:25:45;4.63;;;2.45;;
24713;SDS011;12820;51.580;5.010;2022-07-19T09:30:51;3.92;;;2.58;;
24713;SDS011;12820;51.580;5.010;2022-07-19T09:35:57;7.35;;;2.95;;
24713;SDS011;12820;51.580;5.010;2022-07-19T09:46:25;6.15;;;2.70;;
24713;SDS011;12820;51.580;5.010;2022-07-19T09:51:33;6.18;;;2.60;;
24713;SDS011;12820;51.580;5.010;2022-07-19T09:56:37;6.32;;;2.78;;
24713;SDS011;12820;51.580;5.010;2022-07-19T10:01:40;4.15;;;2.30;;
24713;SDS011;12820;51.580;5.010;2022-07-19T10:06:43;6.80;;;2.30;;
24713;SDS011;12820;51.580;5.010;2022-07-19T10:11:46;5.75;;;2.72;;
24713;SDS011;12820;51.580;5.010;2022-07-19T10:22:13;4.93;;;2.35;;
24713;SDS011;12820;51.580;5.010;2022-07-19T10:32:29;7.65;;;2.10;;
24713;SDS011;12820;51.580;5.010;2022-07-19T10:37:39;7.20;;;2.65;;
24713;SDS011;12820;51.580;5.010;2022-07-19T10:48:12;7.20;;;2.40;;
24713;SDS011;12820;51.580;5.010;2022-07-19T10:59:08;4.22;;;1.85;;
24713;SDS011;12820;51.580;5.010;2022-07-19T11:04:22;6.20;;;2.40;;
24713;SDS011;12820;51.580;5.010;2022-07-19T11:09:38;4.25;;;1.60;;
24713;SDS011;12820;51.580;5.010;2022-07-19T11:14:43;5.30;;;1.77;;
24713;SDS011;12820;51.580;5.010;2022-07-19T11:25:11;3.10;;;1.67;;
24713;SDS011;12820;51.580;5.010;2022-07-19T11:30:15;3.90;;;1.75;;
24713;SDS011;12820;51.580;5.010;2022-07-19T11:35:17;4.53;;;2.05;;
24713;SDS011;12820;51.580;5.010;2022-07-19T11:40:20;6.00;;;1.40;;
24713;SDS011;12820;51.580;5.010;2022-07-19T11:45:23;4.30;;;1.60;;
24713;SDS011;12820;51.580;5.010;2022-07-19T11:50:26;2.88;;;1.33;;
24713;SDS011;12820;51.580;5.010;2022-07-19T11:55:34;7.15;;;1.85;;
24713;SDS011;12820;51.580;5.010;2022-07-19T12:00:38;4.38;;;1.55;;
24713;SDS011;12820;51.580;5.010;2022-07-19T12:05:55;4.95;;;1.40;;
24713;SDS011;12820;51.580;5.010;2022-07-19T12:11:14;4.00;;;1.77;;
24713;SDS011;12820;51.580;5.010;2022-07-19T12:16:26;3.55;;;1.83;;
24713;SDS011;12820;51.580;5.010;2022-07-19T12:37:21;3.42;;;1.85;;
24713;SDS011;12820;51.580;5.010;2022-07-19T12:42:39;4.28;;;1.92;;
24713;SDS011;12820;51.580;5.010;2022-07-19T12:47:41;4.78;;;1.90;;
24713;SDS011;12820;51.580;5.010;2022-07-19T12:52:44;4.05;;;1.80;;
24713;SDS011;12820;51.580;5.010;2022-07-19T12:57:46;3.58;;;1.40;;
24713;SDS011;12820;51.580;5.010;2022-07-19T13:02:49;3.60;;;1.70;;
24713;SDS011;12820;51.580;5.010;2022-07-19T13:07:53;3.50;;;1.60;;
24713;SDS011;12820;51.580;5.010;2022-07-19T13:12:55;3.83;;;1.50;;
24713;SDS011;12820;51.580;5.010;2022-07-19T13:18:00;4.35;;;1.70;;
24713;SDS011;12820;51.580;5.010;2022-07-19T13:23:05;2.58;;;1.20;;
24713;SDS011;12820;51.580;5.010;2022-07-19T13:28:07;3.03;;;1.45;;
24713;SDS011;12820;51.580;5.010;2022-07-19T13:33:10;4.03;;;1.50;;
24713;SDS011;12820;51.580;5.010;2022-07-19T13:38:12;3.47;;;1.30;;
24713;SDS011;12820;51.580;5.010;2022-07-19T13:43:15;2.97;;;1.42;;
24713;SDS011;12820;51.580;5.010;2022-07-19T13:48:19;5.05;;;1.58;;
24713;SDS011;12820;51.580;5.010;2022-07-19T13:53:24;3.05;;;1.30;;
24713;SDS011;12820;51.580;5.010;2022-07-19T13:58:26;6.25;;;1.48;;
24713;SDS011;12820;51.580;5.010;2022-07-19T14:03:30;2.95;;;1.42;;
24713;SDS011;12820;51.580;5.010;2022-07-19T14:08:33;3.50;;;1.60;;
24713;SDS011;12820;51.580;5.010;2022-07-19T14:13:35;4.72;;;1.60;;
24713;SDS011;12820;51.580;5.010;2022-07-19T14:18:37;3.22;;;1.50;;
24713;SDS011;12820;51.580;5.010;2022-07-19T14:23:40;3.45;;;1.70;;
24713;SDS011;12820;51.580;5.010;2022-07-19T14:28:42;4.07;;;1.60;;
24713;SDS011;12820;51.580;5.010;2022-07-19T14:33:45;2.75;;;1.42;;
24713;SDS011;12820;51.580;5.010;2022-07-19T14:38:47;3.55;;;1.83;;
24713;SDS011;12820;51.580;5.010;2022-07-19T14:43:50;3.45;;;1.65;;
24713;SDS011;12820;51.580;5.010;2022-07-19T14:48:52;4.32;;;1.60;;
24713;SDS011;12820;51.580;5.010;2022-07-19T14:53:54;3.42;;;1.88;;
24713;SDS011;12820;51.580;5.010;2022-07-19T14:58:56;7.20;;;2.05;;
24713;SDS011;12820;51.580;5.010;2022-07-19T15:03:58;5.28;;;1.70;;
24713;SDS011;12820;51.580;5.010;2022-07-19T15:09:03;3.97;;;1.63;;
24713;SDS011;12820;51.580;5.010;2022-07-19T15:14:06;3.00;;;1.50;;
24713;SDS011;12820;51.580;5.010;2022-07-19T15:19:08;3.95;;;1.95;;
24713;SDS011;12820;51.580;5.010;2022-07-19T15:24:10;4.05;;;1.80;;
24713;SDS011;12820;51.580;5.010;2022-07-19T15:29:13;3.53;;;1.60;;
24713;SDS011;12820;51.580;5.010;2022-07-19T15:39:22;4.85;;;1.40;;
24713;SDS011;12820;51.580;5.010;2022-07-19T15:44:24;3.72;;;1.60;;
24713;SDS011;12820;51.580;5.010;2022-07-19T15:49:27;4.85;;;1.50;;
24713;SDS011;12820;51.580;5.010;2022-07-19T15:54:30;5.82;;;1.50;;
24713;SDS011;12820;51.580;5.010;2022-07-19T15:59:32;5.05;;;1.48;;
24713;SDS011;12820;51.580;5.010;2022-07-19T16:04:34;5.28;;;1.60;;
24713;SDS011;12820;51.580;5.010;2022-07-19T16:09:36;3.83;;;1.50;;
24713;SDS011;12820;51.580;5.010;2022-07-19T16:14:39;4.03;;;1.30;;
24713;SDS011;12820;51.580;5.010;2022-07-19T16:19:41;3.33;;;1.67;;
24713;SDS011;12820;51.580;5.010;2022-07-19T16:24:43;4.63;;;1.77;;
24713;SDS011;12820;51.580;5.010;2022-07-19T16:29:46;6.97;;;2.05;;
24713;SDS011;12820;51.580;5.010;2022-07-19T16:35:12;6.03;;;1.75;;
24713;SDS011;12820;51.580;5.010;2022-07-19T16:40:15;3.70;;;1.30;;
24713;SDS011;12820;51.580;5.010;2022-07-19T16:45:21;3.63;;;1.15;;
24713;SDS011;12820;51.580;5.010;2022-07-19T16:50:24;2.67;;;1.20;;
24713;SDS011;12820;51.580;5.010;2022-07-19T16:55:27;4.43;;;1.58;;
24713;SDS011;12820;51.580;5.010;2022-07-19T17:00:34;4.07;;;1.75;;
24713;SDS011;12820;51.580;5.010;2022-07-19T17:05:36;5.53;;;1.80;;
24713;SDS011;12820;51.580;5.010;2022-07-19T17:10:38;5.13;;;1.77;;
24713;SDS011;12820;51.580;5.010;2022-07-19T17:15:40;3.78;;;1.75;;
24713;SDS011;12820;51.580;5.010;2022-07-19T17:20:42;6.22;;;1.70;;
24713;SDS011;12820;51.580;5.010;2022-07-19T17:25:45;5.95;;;2.03;;
24713;SDS011;12820;51.580;5.010;2022-07-19T17:30:47;4.18;;;1.90;;
24713;SDS011;12820;51.580;5.010;2022-07-19T17:35:49;3.63;;;1.83;;
24713;SDS011;12820;51.580;5.010;2022-07-19T17:40:52;5.03;;;1.75;;
24713;SDS011;12820;51.580;5.010;2022-07-19T17:45:55;4.50;;;1.70;;
24713;SDS011;12820;51.580;5.010;2022-07-19T17:50:57;6.35;;;2.10;;
24713;SDS011;12820;51.580;5.010;2022-07-19T17:56:03;6.53;;;1.80;;
24713;SDS011;12820;51.580;5.010;2022-07-19T18:01:06;3.78;;;2.00;;
24713;SDS011;12820;51.580;5.010;2022-07-19T18:06:09;3.95;;;1.85;;
24713;SDS011;12820;51.580;5.010;2022-07-19T18:11:12;6.50;;;2.00;;
24713;SDS011;12820;51.580;5.010;2022-07-19T18:16:14;5.68;;;1.80;;
24713;SDS011;12820;51.580;5.010;2022-07-19T18:21:36;3.40;;;1.73;;
24713;SDS011;12820;51.580;5.010;2022-07-19T18:26:38;4.45;;;1.77;;
24713;SDS011;12820;51.580;5.010;2022-07-19T18:31:41;6.20;;;2.03;;
24713;SDS011;12820;51.580;5.010;2022-07-19T18:36:45;3.53;;;1.55;;
24713;SDS011;12820;51.580;5.010;2022-07-19T18:41:50;4.53;;;1.77;;
24713;SDS011;12820;51.580;5.010;2022-07-19T18:46:52;5.65;;;2.03;;
24713;SDS011;12820;51.580;5.010;2022-07-19T18:51:54;5.25;;;2.00;;
24713;SDS011;12820;51.580;5.010;2022-07-19T18:56:56;4.13;;;1.80;;
24713;SDS011;12820;51.580;5.010;2022-07-19T19:02:01;5.32;;;2.20;;
24713;SDS011;12820;51.580;5.010;2022-07-19T19:07:04;5.55;;;1.92;;
24713;SDS011;12820;51.580;5.010;2022-07-19T19:12:06;3.90;;;1.95;;
24713;SDS011;12820;51.580;5.010;2022-07-19T19:17:08;4.75;;;2.30;;
24713;SDS011;12820;51.580;5.010;2022-07-19T19:22:10;6.10;;;2.35;;
24713;SDS011;12820;51.580;5.010;2022-07-19T19:27:13;5.20;;;2.22;;
24713;SDS011;12820;51.580;5.010;2022-07-19T19:32:15;4.07;;;2.10;;
24713;SDS011;12820;51.580;5.010;2022-07-19T19:37:20;4.85;;;2.40;;
24713;SDS011;12820;51.580;5.010;2022-07-19T19:42:22;4.68;;;2.10;;
24713;SDS011;12820;51.580;5.010;2022-07-19T19:47:25;5.10;;;2.30;;
24713;SDS011;12820;51.580;5.010;2022-07-19T19:52:32;6.95;;;2.53;;
24713;SDS011;12820;51.580;5.010;2022-07-19T19:57:41;4.03;;;2.10;;
24713;SDS011;12820;51.580;5.010;2022-07-19T20:02:44;3.88;;;2.20;;
24713;SDS011;12820;51.580;5.010;2022-07-19T20:07:46;7.28;;;2.78;;
24713;SDS011;12820;51.580;5.010;2022-07-19T20:12:48;6.45;;;2.53;;
24713;SDS011;12820;51.580;5.010;2022-07-19T20:17:53;6.13;;;2.70;;
24713;SDS011;12820;51.580;5.010;2022-07-19T20:22:55;5.38;;;2.10;;
24713;SDS011;12820;51.580;5.010;2022-07-19T20:27:57;3.72;;;2.28;;
24713;SDS011;12820;51.580;5.010;2022-07-19T20:33:08;6.65;;;2.25;;
24713;SDS011;12820;51.580;5.010;2022-07-19T20:38:12;4.43;;;2.35;;
24713;SDS011;12820;51.580;5.010;2022-07-19T20:43:15;3.58;;;2.08;;
24713;SDS011;12820;51.580;5.010;2022-07-19T20:48:17;4.00;;;2.40;;
24713;SDS011;12820;51.580;5.010;2022-07-19T20:53:19;4.45;;;2.42;;
24713;SDS011;12820;51.580;5.010;2022-07-19T20:58:21;6.55;;;2.83;;
24713;SDS011;12820;51.580;5.010;2022-07-19T21:03:23;5.15;;;2.75;;
24713;SDS011;12820;51.580;5.010;2022-07-19T21:08:25;4.50;;;2.60;;
24713;SDS011;12820;51.580;5.010;2022-07-19T21:13:27;6.80;;;2.80;;
24713;SDS011;12820;51.580;5.010;2022-07-19T21:18:29;4.63;;;2.38;;
24713;SDS011;12820;51.580;5.010;2022-07-19T21:23:33;6.03;;;3.08;;
24713;SDS011;12820;51.580;5.010;2022-07-19T21:28:35;5.95;;;2.90;;
24713;SDS011;12820;51.580;5.010;2022-07-19T21:33:37;5.07;;;3.08;;
24713;SDS011;12820;51.580;5.010;2022-07-19T21:38:39;4.70;;;2.80;;
24713;SDS011;12820;51.580;5.010;2022-07-19T21:43:48;4.65;;;2.67;;
24713;SDS011;12820;51.580;5.010;2022-07-19T21:48:51;4.50;;;2.40;;
24713;SDS011;12820;51.580;5.010;2022-07-19T21:53:54;5.50;;;2.72;;
24713;SDS011;12820;51.580;5.010;2022-07-19T21:58:56;5.35;;;2.30;;
24713;SDS011;12820;51.580;5.010;2022-07-19T22:03:59;7.47;;;2.83;;
24713;SDS011;12820;51.580;5.010;2022-07-19T22:09:05;9.82;;;3.13;;
24713;SDS011;12820;51.580;5.010;2022-07-19T22:14:07;7.93;;;2.83;;
24713;SDS011;12820;51.580;5.010;2022-07-19T22:19:09;4.60;;;2.65;;
24713;SDS011;12820;51.580;5.010;2022-07-19T22:24:11;6.93;;;2.95;;
24713;SDS011;12820;51.580;5.010;2022-07-19T22:29:13;4.90;;;2.60;;
24713;SDS011;12820;51.580;5.010;2022-07-19T22:34:15;6.30;;;2.70;;
24713;SDS011;12820;51.580;5.010;2022-07-19T22:39:21;8.70;;;3.13;;
24713;SDS011;12820;51.580;5.010;2022-07-19T22:44:23;5.47;;;3.10;;
24713;SDS011;12820;51.580;5.010;2022-07-19T22:49:26;5.32;;;2.97;;
24713;SDS011;12820;51.580;5.010;2022-07-19T22:54:28;6.63;;;3.13;;
24713;SDS011;12820;51.580;5.010;2022-07-19T22:59:30;5.45;;;3.00;;
24713;SDS011;12820;51.580;5.010;2022-07-19T23:04:32;10.60;;;3.30;;
24713;SDS011;12820;51.580;5.010;2022-07-19T23:09:34;7.60;;;3.08;;
24713;SDS011;12820;51.580;5.010;2022-07-19T23:14:37;5.18;;;2.83;;
24713;SDS011;12820;51.580;5.010;2022-07-19T23:19:39;6.97;;;3.10;;
24713;SDS011;12820;51.580;5.010;2022-07-19T23:24:41;8.52;;;2.75;;
24713;SDS011;12820;51.580;5.010;2022-07-19T23:29:43;7.78;;;3.00;;
24713;SDS011;12820;51.580;5.010;2022-07-19T23:34:45;7.35;;;3.42;;
24713;SDS011;12820;51.580;5.010;2022-07-19T23:39:47;14.82;;;3.10;;
24713;SDS011;12820;51.580;5.010;2022-07-19T23:44:49;5.40;;;3.40;;
24713;SDS011;12820;51.580;5.010;2022-07-19T23:49:51;7.05;;;3.33;;
24713;SDS011;12820;51.580;5.010;2022-07-19T23:54:53;9.18;;;3.33;;
24713;SDS011;12820;51.580;5.010;2022-07-19T23:59:56;9.05;;;3.05;;
